Time;durP1;ratioP1;P1;durP2;ratioP2;P2;SDS_P1;SDS_P2;PMS_P1;PMS_P2;Temp;Humidity;BMP_temperature;BMP_pressure;BME280_temperature;BME280_humidity;BME280_pressure;Samples;Min_cycle;Max_cycle;Signal;HPM_P1;HPM_P2
2021/07/21 00:00:11;;;;;;;0.40;0.10;;;;;;;21.89;56.40;100429.45;126145;1095;102991;-59
2021/07/21 00:02:39;;;;;;;0.40;0.00;;;;;;;21.88;56.43;100425.89;126219;1096;102913;-60
2021/07/21 00:05:11;;;;;;;0.40;0.00;;;;;;;21.83;56.52;100433.48;126041;1096;114221;-60
2021/07/21 00:07:40;;;;;;;0.40;0.00;;;;;;;21.85;56.08;100434.23;126285;1095;103752;-59
2021/07/21 00:10:09;;;;;;;0.40;0.00;;;;;;;21.83;56.73;100430.78;126163;1095;114361;-59
2021/07/21 00:15:29;;;;;;;0.40;0.00;;;;;;;21.53;57.42;100431.13;126444;1096;114172;-59
2021/07/21 00:18:02;;;;;;;0.40;0.00;;;;;;;21.46;58.00;100432.52;126430;1095;104292;-59
2021/07/21 00:20:31;;;;;;;0.40;0.00;;;;;;;21.50;57.39;100429.50;126535;1094;103052;-59
2021/07/21 00:22:59;;;;;;;0.40;0.00;;;;;;;21.56;57.99;100430.06;126195;1096;114133;-61
2021/07/21 00:25:26;;;;;;;0.40;0.10;;;;;;;21.53;57.02;100433.83;125988;1095;103041;-68
2021/07/21 00:27:53;;;;;;;0.40;0.00;;;;;;;21.54;57.08;100425.62;126044;1095;113334;-61
2021/07/21 00:30:21;;;;;;;0.40;0.00;;;;;;;21.50;58.07;100424.08;126133;1095;102920;-61
2021/07/21 00:32:49;;;;;;;0.40;0.00;;;;;;;21.36;57.89;100422.34;126120;1095;103041;-61
2021/07/21 00:35:18;;;;;;;0.40;0.00;;;;;;;21.34;58.41;100424.31;126113;1095;114186;-58
2021/07/21 00:37:45;;;;;;;0.40;0.00;;;;;;;21.28;58.09;100435.56;126107;1096;102918;-61
2021/07/21 00:40:16;;;;;;;0.40;0.00;;;;;;;21.12;59.17;100433.07;126021;1096;114252;-61
2021/07/21 00:42:44;;;;;;;0.40;0.00;;;;;;;20.99;59.33;100438.50;126127;1095;102910;-61
2021/07/21 00:45:12;;;;;;;0.40;0.00;;;;;;;21.04;59.30;100440.88;126124;1096;103429;-61
2021/07/21 00:47:40;;;;;;;0.40;0.00;;;;;;;21.00;59.62;100442.06;126028;1095;114023;-61
2021/07/21 00:50:09;;;;;;;0.40;0.00;;;;;;;20.95;60.24;100447.81;126499;1096;103018;-58
2021/07/21 00:52:39;;;;;;;0.40;0.00;;;;;;;20.84;60.29;100450.38;125953;1096;114169;-61
2021/07/21 00:55:12;;;;;;;0.40;0.10;;;;;;;20.92;59.55;100455.27;126140;1095;103029;-61
2021/07/21 00:57:41;;;;;;;0.40;0.00;;;;;;;21.03;59.67;100448.14;126074;1096;114536;-61
2021/07/21 01:00:11;;;;;;;0.40;0.00;;;;;;;21.02;60.32;100459.94;126192;1094;102903;-61
2021/07/21 01:02:39;;;;;;;0.40;0.00;;;;;;;20.88;60.38;100452.75;126077;1095;103129;-61
2021/07/21 01:05:15;;;;;;;0.40;0.00;;;;;;;20.75;60.16;100457.27;126324;1095;114319;-61
2021/07/21 01:07:47;;;;;;;0.40;0.00;;;;;;;20.87;60.24;100447.45;126227;1096;102994;-61
2021/07/21 01:10:17;;;;;;;0.40;0.00;;;;;;;21.05;59.97;100448.03;126025;1096;112969;-61
2021/07/21 01:13:18;;;;;;;0.40;0.00;;;;;;;21.13;59.35;100456.48;126024;1095;103051;-61
2021/07/21 01:16:04;;;;;;;0.40;0.00;;;;;;;21.07;59.60;100448.77;125861;1096;114385;-61
2021/07/21 01:18:42;;;;;;;0.40;0.00;;;;;;;21.09;59.62;100460.38;126185;1096;103015;-61
2021/07/21 01:21:12;;;;;;;0.40;0.00;;;;;;;20.99;59.99;100449.33;126142;1095;102986;-61
2021/07/21 01:23:49;;;;;;;0.40;0.00;;;;;;;21.07;59.81;100448.77;125834;1096;114335;-61
2021/07/21 01:26:23;;;;;;;0.40;0.00;;;;;;;21.08;60.04;100453.22;126075;1096;102884;-59
2021/07/21 01:28:52;;;;;;;0.40;0.00;;;;;;;20.99;59.98;100456.56;126047;1095;114207;-61
2021/07/21 01:31:26;;;;;;;0.40;0.00;;;;;;;21.00;59.81;100458.31;126072;1096;102973;-59
2021/07/21 01:33:54;;;;;;;0.40;0.00;;;;;;;20.98;60.00;100453.00;126013;1096;113383;-59
2021/07/21 01:36:52;;;;;;;0.40;0.00;;;;;;;20.85;60.26;100461.09;125988;1095;102900;-59
2021/07/21 01:39:26;;;;;;;0.40;0.10;;;;;;;20.88;59.71;100451.89;125775;1095;114377;-59
2021/07/21 01:41:56;;;;;;;0.40;0.00;;;;;;;20.80;59.99;100455.13;126115;1095;102891;-59
2021/07/21 01:44:27;;;;;;;0.40;0.00;;;;;;;20.78;60.14;100467.03;126123;1095;102942;-59
2021/07/21 01:46:57;;;;;;;0.40;0.00;;;;;;;20.85;60.22;100442.14;126071;1096;114429;-60
2021/07/21 01:49:28;;;;;;;0.40;0.00;;;;;;;20.75;60.18;100459.13;126155;1096;103029;-60
2021/07/21 01:51:56;;;;;;;0.40;0.10;;;;;;;20.74;60.38;100454.67;125870;1095;113500;-60
2021/07/21 01:54:24;;;;;;;0.40;0.03;;;;;;;20.78;60.02;100459.80;126347;1096;102970;-60
2021/07/21 01:56:52;;;;;;;0.40;0.00;;;;;;;20.76;60.41;100447.33;126280;1096;103029;-60
2021/07/21 01:59:21;;;;;;;0.40;0.10;;;;;;;20.71;60.49;100461.16;126312;1096;114115;-60
2021/07/21 02:01:48;;;;;;;0.40;0.10;;;;;;;20.75;59.77;100470.80;126130;1096;102900;-60
2021/07/21 02:04:16;;;;;;;0.40;0.00;;;;;;;20.70;60.35;100465.72;125986;1096;114359;-60
2021/07/21 02:06:44;;;;;;;0.40;0.00;;;;;;;20.72;60.48;100468.31;126142;1095;102884;-60
2021/07/21 02:09:12;;;;;;;0.40;0.00;;;;;;;20.74;60.14;100457.38;126200;1095;103122;-60
2021/07/21 02:11:40;;;;;;;0.40;0.00;;;;;;;20.69;59.85;100457.71;126025;1096;114125;-60
2021/07/21 02:14:10;;;;;;;0.40;0.00;;;;;;;20.66;60.29;100465.98;126114;1095;102894;-60
2021/07/21 02:16:38;;;;;;;0.40;0.08;;;;;;;20.73;60.49;100456.53;126015;1095;113498;-59
2021/07/21 02:19:07;;;;;;;0.40;0.00;;;;;;;20.62;60.37;100462.64;126207;1096;103057;-60
2021/07/21 02:21:39;;;;;;;0.40;0.00;;;;;;;20.59;60.04;100468.23;125880;1095;115571;-60
2021/07/21 02:24:08;;;;;;;0.40;0.00;;;;;;;20.62;60.16;100468.05;126105;1095;103030;-60
2021/07/21 02:26:37;;;;;;;0.40;0.00;;;;;;;20.61;60.50;100476.28;126177;1095;102947;-60
2021/07/21 02:29:05;;;;;;;0.40;0.00;;;;;;;20.51;60.51;100476.89;125913;1095;114141;-60
2021/07/21 02:31:40;;;;;;;0.40;0.00;;;;;;;20.47;60.51;100483.48;126184;1095;103092;-60
2021/07/21 02:34:07;;;;;;;0.40;0.10;;;;;;;20.46;60.41;100488.97;125929;1096;114182;-60
2021/07/21 02:36:35;;;;;;;0.40;0.00;;;;;;;20.46;59.99;100486.27;125960;1096;102878;-60
2021/07/21 02:39:05;;;;;;;0.40;0.00;;;;;;;20.46;60.14;100486.27;126220;1095;102900;-60
2021/07/21 02:41:35;;;;;;;0.40;0.00;;;;;;;20.55;59.97;100485.66;126052;1095;114661;-60
2021/07/21 02:44:05;;;;;;;0.40;0.00;;;;;;;20.54;60.11;100481.23;126116;1096;102998;-60
2021/07/21 02:46:32;;;;;;;0.40;0.10;;;;;;;20.48;59.96;100490.61;126056;1095;114206;-60
2021/07/21 02:49:00;;;;;;;0.40;0.10;;;;;;;20.45;59.99;100500.78;126037;1095;103064;-60
2021/07/21 02:51:41;;;;;;;0.40;0.00;;;;;;;20.41;59.97;100497.41;126579;1096;114806;-60
2021/07/21 02:54:16;;;;;;;0.40;0.00;;;;;;;20.34;60.22;100502.35;125983;1095;103360;-60
2021/07/21 02:57:14;;;;;;;0.40;0.10;;;;;;;20.36;60.17;100504.95;126044;1095;102975;-60
2021/07/21 02:59:46;;;;;;;0.40;0.08;;;;;;;20.40;60.04;100511.04;125930;1096;114066;-60
2021/07/21 03:02:15;;;;;;;0.40;0.10;;;;;;;20.42;59.67;100511.78;125995;1095;104867;-60
2021/07/21 03:04:43;;;;;;;0.40;0.00;;;;;;;20.28;60.30;100510.00;125906;1095;114305;-60
2021/07/21 03:07:11;;;;;;;0.40;0.03;;;;;;;20.12;60.87;100508.28;126103;1095;103027;-60
2021/07/21 03:09:38;;;;;;;0.40;0.00;;;;;;;20.07;61.32;100512.26;126134;1096;114393;-60
2021/07/21 03:12:09;;;;;;;0.40;0.00;;;;;;;20.12;61.14;100502.88;126227;1096;102906;-60
2021/07/21 03:14:39;;;;;;;0.40;0.00;;;;;;;20.06;61.85;100508.70;126077;1095;102978;-60
2021/07/21 03:17:06;;;;;;;0.40;0.00;;;;;;;19.99;61.69;100504.63;126302;1095;114217;-60
2021/07/21 03:19:35;;;;;;;0.40;0.10;;;;;;;20.00;61.81;100509.08;126011;1095;102947;-60
2021/07/21 03:22:04;;;;;;;0.40;0.10;;;;;;;20.08;61.13;100517.56;125995;1096;114606;-60
2021/07/21 03:24:31;;;;;;;0.40;0.00;;;;;;;20.09;60.97;100510.34;126078;1095;103145;-60
2021/07/21 03:26:59;;;;;;;0.40;0.10;;;;;;;20.11;61.16;100520.05;126229;1096;102947;-60
2021/07/21 03:29:29;;;;;;;0.40;0.00;;;;;;;20.04;61.26;100524.99;125893;1095;114200;-60
2021/07/21 03:31:56;;;;;;;0.40;0.00;;;;;;;20.02;61.04;100521.53;126119;1096;103017;-60
2021/07/21 03:34:24;;;;;;;0.40;0.00;;;;;;;20.08;60.87;100525.67;126075;1095;114274;-60
2021/07/21 03:36:54;;;;;;;0.40;0.00;;;;;;;20.15;61.34;100532.44;126100;1095;102975;-61
2021/07/21 03:39:21;;;;;;;0.40;0.00;;;;;;;20.16;61.20;100530.59;126386;1095;114445;-60
2021/07/21 03:41:50;;;;;;;0.40;0.00;;;;;;;20.16;60.98;100534.16;126060;1095;103015;-60
2021/07/21 03:44:21;;;;;;;0.40;0.00;;;;;;;20.21;60.96;100542.84;126013;1096;102891;-60
2021/07/21 03:46:48;;;;;;;0.40;0.10;;;;;;;20.25;60.52;100540.81;126152;1095;114190;-60
2021/07/21 03:49:18;;;;;;;0.40;0.00;;;;;;;20.32;60.18;100549.41;126026;1096;102977;-60
2021/07/21 03:51:46;;;;;;;0.40;0.00;;;;;;;20.37;60.06;100544.56;126057;1095;114650;-60
2021/07/21 03:54:15;;;;;;;0.40;0.00;;;;;;;20.40;59.96;100547.06;126097;1096;103007;-60
2021/07/21 03:56:44;;;;;;;0.40;0.10;;;;;;;20.41;60.30;100542.53;126186;1095;102913;-59
2021/07/21 03:59:15;;;;;;;0.40;0.00;;;;;;;20.46;60.05;100552.08;126111;1096;114320;-59
2021/07/21 04:01:45;;;;;;;0.40;0.00;;;;;;;20.44;60.29;100553.15;126081;1096;103021;-60
2021/07/21 04:04:19;;;;;;;0.40;0.00;;;;;;;20.43;60.29;100551.41;126021;1096;114340;-60
2021/07/21 04:06:46;;;;;;;0.40;0.00;;;;;;;20.37;60.26;100552.68;126120;1095;102911;-59
2021/07/21 04:09:17;;;;;;;0.40;0.00;;;;;;;20.31;60.31;100556.66;126167;1096;103469;-60
2021/07/21 04:11:45;;;;;;;0.40;0.00;;;;;;;20.25;61.00;100567.01;126051;1095;114033;-60
2021/07/21 04:14:15;;;;;;;0.40;0.00;;;;;;;20.18;60.74;100572.80;126140;1095;102966;-60
2021/07/21 04:16:43;;;;;;;0.40;0.10;;;;;;;20.12;60.92;100573.17;125974;1095;114226;-60
2021/07/21 04:19:12;;;;;;;0.40;0.00;;;;;;;20.09;61.30;100567.98;126285;1096;103073;-60
2021/07/21 04:21:40;;;;;;;0.40;0.00;;;;;;;20.04;61.31;100573.66;126028;1095;114427;-60
2021/07/21 04:24:10;;;;;;;0.40;0.10;;;;;;;20.04;61.46;100572.80;126176;1095;102897;-60
2021/07/21 04:26:39;;;;;;;0.40;0.00;;;;;;;20.09;61.33;100573.38;126130;1094;104122;-60
2021/07/21 04:29:11;;;;;;;0.40;0.00;;;;;;;20.10;61.50;100577.83;126078;1095;113283;-60
2021/07/21 04:31:39;;;;;;;0.40;0.00;;;;;;;19.99;61.89;100581.22;126003;1095;102960;-60
2021/07/21 04:34:07;;;;;;;0.40;0.00;;;;;;;20.00;61.86;100579.37;126033;1095;114183;-60
2021/07/21 04:36:37;;;;;;;0.40;0.10;;;;;;;20.03;61.95;100584.58;126148;1095;103431;-60
2021/07/21 04:39:06;;;;;;;0.40;0.10;;;;;;;20.08;61.98;100585.16;126343;1096;103231;-60
2021/07/21 04:41:34;;;;;;;0.40;0.10;;;;;;;20.13;61.97;100591.14;126213;1095;114031;-60
2021/07/21 04:44:03;;;;;;;0.40;0.00;;;;;;;20.15;61.85;100594.64;126162;1095;102916;-59
2021/07/21 04:46:34;;;;;;;0.40;0.00;;;;;;;20.23;61.57;100596.83;125972;1096;114561;-60
2021/07/21 04:49:03;;;;;;;0.40;0.00;;;;;;;20.35;61.68;100593.36;126335;1096;102989;-60
2021/07/21 04:51:31;;;;;;;0.40;0.00;;;;;;;20.44;61.65;100596.44;126185;1094;113481;-60
2021/07/21 04:54:04;;;;;;;0.40;0.00;;;;;;;20.34;61.18;100596.14;126246;1095;103015;-60
2021/07/21 04:56:32;;;;;;;0.40;0.00;;;;;;;20.42;61.73;100596.54;126238;1096;102919;-60
2021/07/21 04:58:59;;;;;;;0.40;0.00;;;;;;;20.51;61.48;100600.47;126379;1096;114612;-60
2021/07/21 05:01:26;;;;;;;0.40;0.10;;;;;;;20.54;61.50;100605.70;126131;1094;102916;-60
2021/07/21 05:03:54;;;;;;;0.40;0.00;;;;;;;20.55;61.28;100605.59;125887;1096;114367;-60
2021/07/21 05:06:22;;;;;;;0.40;0.10;;;;;;;20.58;61.42;100606.34;126111;1095;102912;-60
2021/07/21 05:08:50;;;;;;;0.40;0.00;;;;;;;20.66;61.12;100609.41;126124;1096;102894;-60
2021/07/21 05:11:18;;;;;;;0.40;0.00;;;;;;;20.69;61.04;100611.98;125956;1096;114187;-60
2021/07/21 05:13:46;;;;;;;0.40;0.10;;;;;;;20.68;61.01;100607.49;126260;1096;102882;-60
2021/07/21 05:16:14;;;;;;;0.40;0.00;;;;;;;20.74;61.29;100609.84;126040;1096;114557;-60
2021/07/21 05:18:42;;;;;;;0.40;0.10;;;;;;;20.74;60.66;100612.55;126209;1096;103007;-60
2021/07/21 05:21:09;;;;;;;0.40;0.00;;;;;;;20.85;60.97;100619.95;126134;1095;102907;-60
2021/07/21 05:23:36;;;;;;;0.40;0.00;;;;;;;20.97;60.71;100613.72;126048;1096;114017;-60
2021/07/21 05:26:04;;;;;;;0.40;0.10;;;;;;;21.17;60.88;100611.52;126101;1095;103377;-60
2021/07/21 05:28:34;;;;;;;0.40;0.00;;;;;;;21.28;60.38;100610.79;126041;1095;114324;-60
2021/07/21 05:31:02;;;;;;;0.40;0.00;;;;;;;21.32;60.26;100624.01;126139;1095;102906;-60
2021/07/21 05:33:29;;;;;;;0.40;0.00;;;;;;;21.27;59.37;100615.32;126045;1096;113541;-60
2021/07/21 05:35:58;;;;;;;0.40;0.00;;;;;;;21.31;59.15;100624.12;126143;1095;102897;-60
2021/07/21 05:38:25;;;;;;;0.40;0.00;;;;;;;21.36;58.90;100616.55;126457;1096;103056;-60
2021/07/21 05:40:52;;;;;;;0.40;0.00;;;;;;;21.33;58.20;100616.77;125907;1095;114222;-60
2021/07/21 05:43:19;;;;;;;0.40;0.00;;;;;;;21.33;58.27;100619.48;125997;1095;102972;-60
2021/07/21 05:45:46;;;;;;;0.40;0.00;;;;;;;21.35;58.52;100631.06;126044;1096;114284;-60
2021/07/21 05:48:14;;;;;;;0.40;0.00;;;;;;;21.39;58.61;100632.59;126156;1095;103032;-60
2021/07/21 05:50:41;;;;;;;0.40;0.00;;;;;;;21.47;57.79;100624.83;126498;1095;102987;-60
2021/07/21 05:53:09;;;;;;;0.40;0.00;;;;;;;21.50;57.41;100621.90;125967;1096;114612;-60
2021/07/21 05:55:36;;;;;;;0.40;0.00;;;;;;;21.49;56.91;100630.14;126071;1095;102916;-60
2021/07/21 05:58:04;;;;;;;0.40;0.00;;;;;;;21.48;57.35;100628.39;126032;1096;114402;-60
2021/07/21 06:00:31;;;;;;;0.40;0.00;;;;;;;21.53;56.93;100637.97;126305;1096;102998;-60
2021/07/21 06:02:58;;;;;;;0.40;0.00;;;;;;;21.51;56.89;100639.02;126104;1096;102890;-60
2021/07/21 06:05:26;;;;;;;0.40;0.00;;;;;;;21.54;57.66;100631.58;125993;1096;114153;-60
2021/07/21 06:07:53;;;;;;;0.40;0.00;;;;;;;21.62;57.26;100638.30;126195;1096;102883;-60
2021/07/21 06:10:21;;;;;;;0.40;0.00;;;;;;;21.68;56.79;100646.88;126445;1095;114407;-60
2021/07/21 06:12:48;;;;;;;0.40;0.00;;;;;;;21.70;57.26;100644.94;126110;1096;103026;-60
2021/07/21 06:15:15;;;;;;;0.40;0.00;;;;;;;21.75;56.39;100649.17;126076;1095;103173;-60
2021/07/21 06:17:44;;;;;;;0.40;0.00;;;;;;;21.77;55.98;100652.66;126315;1096;114393;-60
2021/07/21 06:20:11;;;;;;;0.40;0.00;;;;;;;21.75;56.29;100654.59;126144;1095;103001;-60
2021/07/21 06:22:39;;;;;;;0.40;0.00;;;;;;;21.73;56.43;100657.42;125989;1095;114437;-60
2021/07/21 06:25:08;;;;;;;0.40;0.00;;;;;;;21.76;56.12;100654.48;126155;1096;102912;-60
2021/07/21 06:27:35;;;;;;;0.40;0.05;;;;;;;21.74;56.49;100656.45;126132;1095;114826;-60
2021/07/21 06:30:07;;;;;;;0.40;0.00;;;;;;;21.88;57.20;100655.48;125957;1095;102951;-61
2021/07/21 06:32:36;;;;;;;0.40;0.00;;;;;;;22.04;56.43;100645.28;126193;1095;102909;-60
2021/07/21 06:35:05;;;;;;;0.40;0.00;;;;;;;22.12;56.50;100649.31;126015;1095;114208;-59
2021/07/21 06:37:32;;;;;;;0.40;0.00;;;;;;;22.24;55.51;100644.86;126209;1095;102904;-60
2021/07/21 06:39:59;;;;;;;0.40;0.00;;;;;;;22.26;55.11;100654.63;126042;1095;114614;-59
2021/07/21 06:42:27;;;;;;;0.40;0.00;;;;;;;22.28;54.07;100651.80;126156;1095;102890;-59
2021/07/21 06:44:54;;;;;;;0.40;0.00;;;;;;;22.27;53.82;100650.94;126150;1096;102910;-59
2021/07/21 06:47:22;;;;;;;0.40;0.00;;;;;;;22.26;53.41;100654.63;126063;1095;114491;-59
2021/07/21 06:49:50;;;;;;;0.40;0.00;;;;;;;22.24;52.92;100650.28;126106;1095;103028;-59
2021/07/21 06:52:18;;;;;;;0.40;0.00;;;;;;;22.26;53.58;100649.20;125891;1096;114375;-59
2021/07/21 06:54:45;;;;;;;0.40;0.00;;;;;;;22.26;53.45;100653.73;126124;1095;103033;-59
2021/07/21 06:57:13;;;;;;;0.40;0.00;;;;;;;22.30;53.38;100655.25;126134;1096;102891;-59
2021/07/21 06:59:40;;;;;;;0.40;0.00;;;;;;;;;;126117;1095;114347;-60
2021/07/21 07:02:07;;;;;;;0.40;0.00;;;;;;;22.42;53.90;100648.11;126068;1095;103042;-59
2021/07/21 07:04:35;;;;;;;0.40;0.00;;;;;;;22.40;53.73;100653.65;126048;1096;114504;-59
2021/07/21 07:07:03;;;;;;;0.40;0.00;;;;;;;22.41;53.64;100654.54;126148;1096;102956;-59
2021/07/21 07:09:31;;;;;;;0.40;0.00;;;;;;;22.39;53.72;100657.34;126389;1095;114375;-59
2021/07/21 07:11:58;;;;;;;0.40;0.00;;;;;;;22.46;53.71;100657.76;126229;1094;103020;-60
2021/07/21 07:14:25;;;;;;;0.40;0.00;;;;;;;22.57;54.47;100655.15;126096;1096;103470;-59
2021/07/21 07:16:52;;;;;;;0.40;0.00;;;;;;;22.66;53.57;100664.48;126023;1096;114532;-61
2021/07/21 07:19:20;;;;;;;0.40;0.00;;;;;;;22.75;53.87;100663.78;126090;1096;103012;-61
2021/07/21 07:21:47;;;;;;;0.40;0.00;;;;;;;22.87;53.83;100653.86;126019;1095;114548;-60
2021/07/21 07:24:15;;;;;;;0.40;0.00;;;;;;;22.92;53.15;100661.69;126120;1096;102905;-61
2021/07/21 07:26:43;;;;;;;0.40;0.00;;;;;;;22.91;52.10;100666.23;126080;1096;102984;-60
2021/07/21 07:29:10;;;;;;;0.40;0.00;;;;;;;22.88;53.01;100661.03;125908;1095;114197;-61
2021/07/21 07:31:39;;;;;;;0.40;0.00;;;;;;;22.89;52.26;100662.78;126003;1095;103128;-61
2021/07/21 07:34:06;;;;;;;0.40;0.00;;;;;;;22.89;52.20;100662.78;125847;1095;114206;-60
2021/07/21 07:36:34;;;;;;;0.40;0.00;;;;;;;22.91;51.67;100666.23;125985;1095;102891;-60
2021/07/21 07:39:02;;;;;;;0.40;0.00;;;;;;;22.95;51.79;100669.59;126078;1096;102919;-61
2021/07/21 07:41:29;;;;;;;0.40;0.00;;;;;;;22.99;51.78;100657.52;125939;1095;114388;-60
2021/07/21 07:43:57;;;;;;;0.40;0.00;;;;;;;23.05;51.87;100663.36;126106;1096;103477;-61
2021/07/21 07:46:26;;;;;;;0.40;0.00;;;;;;;23.05;52.00;100657.07;125935;1096;114277;-61
2021/07/21 07:48:55;;;;;;;0.40;0.00;;;;;;;23.10;52.00;100665.75;126123;1095;102973;-60
2021/07/21 07:51:22;;;;;;;0.40;0.00;;;;;;;23.16;51.76;100659.86;125916;1095;114380;-61
2021/07/21 07:53:51;;;;;;;0.40;0.00;;;;;;;23.19;51.07;100659.66;126226;1095;103128;-61
2021/07/21 07:56:18;;;;;;;0.40;0.00;;;;;;;23.23;51.45;100660.27;126348;1096;102961;-60
2021/07/21 07:58:45;;;;;;;0.40;0.00;;;;;;;23.35;51.50;100662.08;125976;1095;114229;-60
2021/07/21 08:01:13;;;;;;;0.40;0.00;;;;;;;23.48;51.39;100661.13;126084;1096;104973;-60
2021/07/21 08:03:41;;;;;;;0.40;0.00;;;;;;;23.53;51.32;100654.34;125947;1095;114520;-60
2021/07/21 08:06:09;;;;;;;0.40;0.00;;;;;;;23.59;50.47;100653.03;125927;1095;103144;-61
2021/07/21 08:08:36;;;;;;;0.40;0.00;;;;;;;23.63;50.50;100650.92;126037;1095;103020;-61
2021/07/21 08:11:04;;;;;;;0.40;0.00;;;;;;;23.68;49.61;100652.28;125953;1096;114476;-60
2021/07/21 08:13:32;;;;;;;0.40;0.00;;;;;;;23.69;49.42;100656.75;126539;1095;102907;-61
2021/07/21 08:16:00;;;;;;;0.40;0.00;;;;;;;23.71;47.40;100649.35;126011;1095;114375;-60
2021/07/21 08:18:27;;;;;;;0.40;0.00;;;;;;;23.71;48.57;100656.63;126108;1096;103124;-60
2021/07/21 08:20:54;;;;;;;0.40;0.00;;;;;;;23.82;48.40;100653.95;126093;1096;102998;-60
2021/07/21 08:23:21;;;;;;;0.40;0.00;;;;;;;23.89;48.19;100657.09;126000;1095;114239;-60
2021/07/21 08:25:49;;;;;;;0.40;0.00;;;;;;;23.92;48.27;100656.84;126147;1095;103039;-60
2021/07/21 08:28:17;;;;;;;0.40;0.00;;;;;;;23.96;47.43;100655.61;125964;1095;114194;-61
2021/07/21 08:30:45;;;;;;;0.40;0.00;;;;;;;24.03;47.59;100662.31;126078;1096;102905;-60
2021/07/21 08:33:13;;;;;;;0.40;0.10;;;;;;;24.09;46.31;100652.79;126102;1095;103065;-60
2021/07/21 08:35:41;;;;;;;0.40;0.00;;;;;;;24.13;46.96;100656.14;125964;1095;114314;-61
2021/07/21 08:38:08;;;;;;;0.40;0.00;;;;;;;24.27;46.05;100649.58;126082;1095;102898;-62
2021/07/21 08:40:36;;;;;;;0.40;0.00;;;;;;;24.36;46.60;100648.84;126064;1095;114185;-60
2021/07/21 08:43:23;;;;;;;0.40;0.00;;;;;;;24.47;44.57;100657.02;126080;1096;102890;-61
2021/07/21 08:45:52;;;;;;;0.40;0.00;;;;;;;24.57;44.78;100656.28;126082;1095;114493;-60
2021/07/21 08:48:20;;;;;;;0.40;0.00;;;;;;;24.67;44.96;100646.38;126173;1095;103035;-60
2021/07/21 08:50:48;;;;;;;0.40;0.00;;;;;;;24.88;44.84;100654.64;126101;1095;102967;-62
2021/07/21 08:53:16;;;;;;;0.40;0.00;;;;;;;25.06;44.29;100656.82;126249;1096;114625;-61
2021/07/21 08:55:44;;;;;;;0.40;0.00;;;;;;;25.17;43.32;100659.53;126133;1095;103022;-60
2021/07/21 08:58:12;;;;;;;0.40;0.00;;;;;;;25.39;43.88;100655.87;126024;1096;114752;-60
2021/07/21 09:00:40;;;;;;;0.40;0.00;;;;;;;25.41;42.73;100662.07;126092;1095;102905;-60
2021/07/21 09:03:07;;;;;;;0.40;0.00;;;;;;;25.52;42.87;100653.86;126027;1095;102900;-61
2021/07/21 09:05:35;;;;;;;0.40;0.00;;;;;;;25.65;43.52;100656.38;125819;1095;114234;-60
2021/07/21 09:08:03;;;;;;;0.40;0.00;;;;;;;25.68;42.50;100653.41;125988;1096;102888;-61
2021/07/21 09:10:31;;;;;;;0.40;0.00;;;;;;;25.79;42.03;100660.66;125930;1096;114202;-60
2021/07/21 09:13:02;;;;;;;0.40;0.00;;;;;;;25.90;41.67;100658.83;126100;1096;102962;-61
2021/07/21 09:15:30;;;;;;;0.40;0.00;;;;;;;25.93;42.02;100662.17;126212;1095;114469;-61
2021/07/21 09:18:02;;;;;;;0.40;0.00;;;;;;;25.90;40.84;100669.75;126082;1095;103013;-61
2021/07/21 09:20:29;;;;;;;0.40;0.00;;;;;;;25.92;41.58;100657.70;126109;1095;103033;-61
2021/07/21 09:22:57;;;;;;;0.40;0.00;;;;;;;25.99;41.61;100661.64;125896;1096;114155;-61
2021/07/21 09:25:26;;;;;;;0.40;0.00;;;;;;;25.94;40.84;100657.56;126142;1095;103415;-61
2021/07/21 09:27:56;;;;;;;0.40;0.00;;;;;;;25.89;41.36;100655.25;125977;1096;114914;-61
2021/07/21 09:30:25;;;;;;;0.40;0.00;;;;;;;26.19;40.75;100650.84;126035;1095;102890;-61
2021/07/21 09:32:57;;;;;;;0.40;0.00;;;;;;;26.57;40.16;100660.22;126187;1096;103058;-61
2021/07/21 09:35:27;;;;;;;0.40;0.00;;;;;;;26.95;40.33;100655.91;126226;1096;114122;-62
2021/07/21 09:37:59;;;;;;;0.40;0.00;;;;;;;26.70;39.79;100658.11;126132;1096;102911;-61
2021/07/21 09:40:27;;;;;;;0.40;0.00;;;;;;;27.84;39.29;100654.08;126290;1096;114135;-61
2021/07/21 09:42:54;;;;;;;0.40;0.00;;;;;;;29.23;35.48;100658.83;126488;1095;103025;-61
2021/07/21 09:45:22;;;;;;;0.40;0.00;;;;;;;30.35;33.48;100660.97;126005;1095;114372;-61
2021/07/21 09:47:54;;;;;;;0.40;0.00;;;;;;;31.21;33.13;100643.63;126060;1096;103393;-61
2021/07/21 09:50:24;;;;;;;0.40;0.00;;;;;;;31.50;32.25;100648.64;126021;1096;102996;-61
2021/07/21 09:52:57;;;;;;;0.40;0.00;;;;;;;32.31;30.76;100652.38;125916;1095;114304;-63
2021/07/21 09:55:25;;;;;;;0.40;0.00;;;;;;;33.14;30.61;100646.50;126258;1095;103383;-63
2021/07/21 09:58:10;;;;;;;0.40;0.00;;;;;;;33.85;29.21;100646.33;125970;1095;114445;-61
2021/07/21 10:00:45;;;;;;;0.40;0.00;;;;;;;34.36;27.72;100645.63;126097;1096;108784;-60
2021/07/21 10:03:20;;;;;;;0.40;0.00;;;;;;;34.32;27.37;100659.00;126311;1096;102996;-61
2021/07/21 10:06:08;;;;;;;0.40;0.00;;;;;;;34.77;26.47;100645.11;126009;1095;114022;-60
2021/07/21 10:08:39;;;;;;;0.40;0.00;;;;;;;34.97;25.54;100650.06;126155;1096;103058;-61
2021/07/21 10:11:31;;;;;;;0.40;0.00;;;;;;;33.92;27.48;100650.04;125786;1096;114226;-60
2021/07/21 10:14:02;;;;;;;0.40;0.00;;;;;;;32.77;28.54;100657.22;126053;1096;103138;-60
2021/07/21 10:16:31;;;;;;;0.40;0.00;;;;;;;33.44;27.86;100663.22;125882;1096;113952;-60
2021/07/21 10:19:16;;;;;;;0.40;0.00;;;;;;;34.12;26.53;100657.80;126116;1095;103129;-61
2021/07/21 10:21:50;;;;;;;0.40;0.00;;;;;;;34.59;26.81;100645.53;125925;1095;114488;-63
2021/07/21 10:24:19;;;;;;;0.40;0.00;;;;;;;33.52;27.76;100654.86;126017;1095;103148;-61
2021/07/21 10:26:47;;;;;;;0.40;0.00;;;;;;;32.76;28.99;100655.49;126088;1096;102894;-61
2021/07/21 10:29:15;;;;;;;0.40;0.00;;;;;;;33.12;28.08;100656.85;125994;1095;114205;-60
2021/07/21 10:31:42;;;;;;;0.40;0.00;;;;;;;33.90;27.18;100654.06;126170;1095;103103;-60
2021/07/21 10:34:10;;;;;;;0.40;0.00;;;;;;;32.83;27.88;100652.91;125984;1095;114383;-60
2021/07/21 10:36:38;;;;;;;0.40;0.00;;;;;;;31.81;29.87;100665.34;126302;1095;102972;-60
2021/07/21 10:39:19;;;;;;;0.40;0.00;;;;;;;30.88;30.35;100668.27;126060;1096;102988;-60
2021/07/21 10:41:47;;;;;;;0.40;0.00;;;;;;;30.06;31.66;100680.55;125955;1095;113971;-60
2021/07/21 10:44:17;;;;;;;0.40;0.00;;;;;;;29.41;33.32;100678.09;126154;1096;102887;-62
2021/07/21 10:46:52;;;;;;;0.40;0.00;;;;;;;28.92;34.28;100671.02;126056;1096;114195;-61
2021/07/21 10:49:27;;;;;;;0.40;0.00;;;;;;;28.55;34.74;100669.19;125981;1095;103055;-61
2021/07/21 11:00:20;;;;;;;0.40;0.00;;;;;;;28.65;34.40;100674.64;126081;1095;102890;-61
2021/07/21 11:02:49;;;;;;;0.40;0.00;;;;;;;29.91;31.44;100671.15;126021;1095;103014;-62
2021/07/21 11:05:35;;;;;;;0.40;0.00;;;;;;;30.22;30.81;100670.66;125901;1096;113170;-62
2021/07/21 11:08:04;;;;;;;0.40;0.00;;;;;;;30.03;30.30;100667.14;126153;1096;102914;-62
2021/07/21 11:10:40;;;;;;;0.40;0.00;;;;;;;29.76;30.23;100671.69;126108;1096;114331;-65
2021/07/21 11:13:10;;;;;;;0.40;0.00;;;;;;;29.67;31.82;100667.16;125906;1095;103157;-63
2021/07/21 11:15:46;;;;;;;0.40;0.00;;;;;;;29.67;32.92;100659.80;126452;1096;103035;-62
2021/07/21 11:18:22;;;;;;;0.40;0.00;;;;;;;29.60;31.67;100663.33;127358;1096;113846;-62
2021/07/21 11:21:09;;;;;;;0.40;0.00;;;;;;;29.49;32.52;100665.29;125996;1096;102916;-62
2021/07/21 11:23:45;;;;;;;0.40;0.00;;;;;;;29.16;30.27;100661.34;126016;1095;114319;-62
2021/07/21 11:26:31;;;;;;;0.40;0.00;;;;;;;28.92;31.80;100660.05;126114;1095;103039;-62
2021/07/21 11:29:18;;;;;;;0.40;0.00;;;;;;;28.67;31.55;100667.11;126004;1094;114456;-61
2021/07/21 11:31:54;;;;;;;0.40;0.00;;;;;;;28.59;32.14;100661.50;126146;1095;102884;-63